Time;durP1;ratioP1;P1;durP2;ratioP2;P2;SDS_P1;SDS_P2;PMS_P1;PMS_P2;Temp;Humidity;BMP_temperature;BMP_pressure;BME280_temperature;BME280_humidity;BME280_pressure;Samples;Min_cycle;Max_cycle;Signal;HPM_P1;HPM_P2
2021/11/15 00:01:14;;;;;;;397.27;86.03;;;6.50;94.70;;;;;;4820207;29;20061;-75
2021/11/15 00:03:44;;;;;;;439.10;92.72;;;6.50;94.70;;;;;;4779294;29;20050;-75
2021/11/15 00:06:12;;;;;;;391.80;86.63;;;6.50;94.70;;;;;;4823388;29;20059;-75
2021/11/15 00:08:39;;;;;;;336.77;83.97;;;6.50;94.60;;;;;;4840102;29;20046;-75
2021/11/15 00:11:07;;;;;;;251.43;75.53;;;6.60;94.70;;;;;;4823240;29;20438;-75
2021/11/15 00:13:35;;;;;;;328.02;86.75;;;6.70;94.70;;;;;;4837367;29;20394;-75
2021/11/15 00:16:03;;;;;;;231.77;72.22;;;6.70;94.70;;;;;;4823029;29;20054;-76
2021/11/15 00:18:31;;;;;;;266.80;76.35;;;6.70;94.70;;;;;;4823593;29;20047;-75
2021/11/15 00:20:59;;;;;;;215.90;72.43;;;6.70;94.70;;;;;;4839471;29;20428;-75
2021/11/15 00:23:27;;;;;;;197.02;66.72;;;6.70;94.70;;;;;;4808962;29;20272;-75
2021/11/15 00:25:54;;;;;;;235.05;70.85;;;6.80;94.70;;;;;;4821703;29;20054;-75
2021/11/15 00:28:22;;;;;;;223.55;68.75;;;6.80;94.70;;;;;;4836578;29;20061;-76
2021/11/15 00:30:50;;;;;;;212.20;64.25;;;6.80;94.70;;;;;;4813915;29;20062;-75
2021/11/15 00:33:17;;;;;;;232.88;63.22;;;6.90;94.70;;;;;;4821280;29;20046;-76
2021/11/15 00:35:45;;;;;;;221.93;54.80;;;7.00;94.80;;;;;;4821709;29;20050;-76
2021/11/15 00:38:13;;;;;;;235.48;53.15;;;7.10;94.90;;;;;;4811829;29;20051;-76
2021/11/15 00:40:40;;;;;;;243.13;50.20;;;7.30;95.00;;;;;;4823838;29;20404;-75
2021/11/15 00:43:08;;;;;;;233.23;48.47;;;7.50;95.10;;;;;;4794672;29;20405;-75
2021/11/15 00:45:36;;;;;;;249.20;49.70;;;7.70;95.10;;;;;;4840385;29;20051;-74
2021/11/15 00:48:04;;;;;;;234.85;46.90;;;7.80;95.00;;;;;;4825739;29;20046;-75
2021/11/15 00:50:33;;;;;;;246.05;48.75;;;8.00;94.90;;;;;;4828712;29;20417;-74
2021/11/15 00:53:00;;;;;;;241.95;47.92;;;8.00;94.80;;;;;;4839551;29;20489;-74
2021/11/15 00:55:28;;;;;;;223.50;46.42;;;8.20;94.80;;;;;;4824667;29;20050;-75
2021/11/15 00:57:56;;;;;;;205.80;44.95;;;8.30;94.80;;;;;;4824208;29;20058;-75
2021/11/15 01:00:26;;;;;;;208.15;43.70;;;8.30;94.70;;;;;;4825829;29;20126;-75
2021/11/15 01:02:55;;;;;;;209.13;44.65;;;8.30;94.70;;;;;;4816428;29;20050;-74
2021/11/15 01:05:24;;;;;;;180.57;48.20;;;8.30;94.80;;;;;;4821132;29;20043;-75
2021/11/15 01:07:52;;;;;;;191.20;48.25;;;8.30;94.80;;;;;;4824830;29;20054;-75
2021/11/15 01:10:21;;;;;;;187.43;47.80;;;8.30;94.80;;;;;;4806789;29;20473;-75
2021/11/15 01:12:49;;;;;;;184.50;46.13;;;8.30;94.90;;;;;;4816483;29;20058;-75
2021/11/15 01:15:21;;;;;;;186.50;45.88;;;8.30;94.90;;;;;;4824724;29;20051;-76
2021/11/15 01:17:50;;;;;;;160.75;40.65;;;8.30;95.00;;;;;;4824398;29;20047;-75
2021/11/15 01:20:22;;;;;;;183.30;45.42;;;8.30;95.00;;;;;;4825079;29;20054;-76
2021/11/15 01:22:50;;;;;;;192.90;44.88;;;8.30;95.10;;;;;;4818479;29;20061;-77
2021/11/15 01:25:17;;;;;;;194.65;44.10;;;8.20;95.20;;;;;;4806239;29;20524;-75
2021/11/15 01:27:45;;;;;;;169.38;40.58;;;8.30;95.20;;;;;;4824673;29;20054;-75
2021/11/15 01:30:15;;;;;;;167.02;40.13;;;8.30;95.20;;;;;;4824795;29;20405;-75
2021/11/15 01:32:43;;;;;;;180.20;42.45;;;8.30;95.20;;;;;;4824020;29;20050;-75
2021/11/15 01:35:12;;;;;;;171.23;41.30;;;8.30;95.20;;;;;;4823498;29;20058;-76
2021/11/15 01:37:40;;;;;;;202.40;43.00;;;8.30;95.20;;;;;;4824210;29;20054;-75
2021/11/15 01:40:10;;;;;;;210.15;43.55;;;8.40;95.20;;;;;;4824183;29;20406;-75
2021/11/15 01:42:39;;;;;;;242.23;44.97;;;8.40;95.30;;;;;;4810396;29;20058;-75
2021/11/15 01:45:08;;;;;;;247.80;44.25;;;8.50;95.30;;;;;;4823825;29;20053;-75
2021/11/15 01:47:36;;;;;;;211.45;40.03;;;8.60;95.30;;;;;;4824597;29;20043;-76
2021/11/15 01:50:06;;;;;;;268.83;43.53;;;8.60;95.30;;;;;;4825206;29;20053;-76
2021/11/15 01:52:34;;;;;;;257.92;40.30;;;8.60;95.30;;;;;;4824581;29;20058;-76
2021/11/15 01:55:01;;;;;;;306.05;42.97;;;8.60;95.30;;;;;;4837408;29;20059;-74
2021/11/15 01:57:29;;;;;;;242.90;41.05;;;8.70;95.30;;;;;;4822595;29;20398;-74
2021/11/15 01:59:57;;;;;;;247.93;42.45;;;8.70;95.30;;;;;;4830250;29;20050;-74
2021/11/15 02:02:26;;;;;;;248.63;42.65;;;8.70;95.30;;;;;;4822000;29;20051;-74
2021/11/15 02:04:57;;;;;;;214.13;40.80;;;8.70;95.30;;;;;;4816380;29;20062;-74
2021/11/15 02:07:25;;;;;;;238.77;42.63;;;8.70;95.30;;;;;;4824493;29;20050;-74
2021/11/15 02:09:53;;;;;;;236.45;41.90;;;8.80;95.30;;;;;;4825012;29;20050;-75
2021/11/15 02:12:21;;;;;;;226.30;40.83;;;8.80;95.30;;;;;;4824673;29;20047;-74
2021/11/15 02:14:48;;;;;;;261.55;44.53;;;8.80;95.30;;;;;;4808915;29;20046;-74
2021/11/15 02:17:16;;;;;;;229.05;40.92;;;8.80;95.30;;;;;;4825897;29;20069;-75
2021/11/15 02:19:45;;;;;;;261.52;41.85;;;8.80;95.30;;;;;;4822890;29;20046;-75
2021/11/15 02:22:14;;;;;;;245.77;43.22;;;8.80;95.30;;;;;;4824378;29;20043;-75
2021/11/15 02:24:44;;;;;;;272.70;43.40;;;8.80;95.30;;;;;;4823606;29;20050;-74
2021/11/15 02:27:12;;;;;;;283.30;44.15;;;8.80;95.30;;;;;;4823108;29;20054;-75
2021/11/15 02:29:40;;;;;;;271.65;44.13;;;8.80;95.30;;;;;;4808347;29;20138;-75
2021/11/15 02:32:08;;;;;;;267.02;45.08;;;8.80;95.30;;;;;;4821480;29;20417;-75
2021/11/15 02:34:35;;;;;;;299.35;45.75;;;8.80;95.30;;;;;;4824179;29;20054;-75
2021/11/15 02:37:03;;;;;;;273.13;44.35;;;8.90;95.30;;;;;;4824420;29;20075;-75
2021/11/15 02:39:30;;;;;;;292.48;45.38;;;8.90;95.40;;;;;;4824545;29;20058;-75
2021/11/15 02:41:59;;;;;;;252.82;43.50;;;8.90;95.40;;;;;;4824137;29;20057;-75
2021/11/15 02:44:27;;;;;;;258.92;45.30;;;8.90;95.30;;;;;;4824117;29;20054;-75
2021/11/15 02:46:55;;;;;;;258.10;45.83;;;8.90;95.40;;;;;;4838128;29;20062;-75
2021/11/15 02:49:22;;;;;;;265.52;44.63;;;8.90;95.40;;;;;;4811127;29;20414;-75
2021/11/15 02:51:50;;;;;;;230.75;44.28;;;8.90;95.40;;;;;;4820270;29;20065;-75
2021/11/15 02:54:20;;;;;;;251.07;45.67;;;8.90;95.40;;;;;;4823385;29;20409;-75
2021/11/15 02:56:48;;;;;;;281.52;48.08;;;8.90;95.40;;;;;;4822759;29;20619;-75
2021/11/15 02:59:15;;;;;;;296.25;47.47;;;8.90;95.40;;;;;;4807718;29;20114;-75
2021/11/15 03:01:47;;;;;;;339.73;48.97;;;8.90;95.40;;;;;;4817736;29;20047;-76
2021/11/15 03:04:15;;;;;;;335.45;50.33;;;8.90;95.40;;;;;;4837647;29;20059;-74
2021/11/15 03:06:44;;;;;;;320.23;48.20;;;9.00;95.40;;;;;;4821784;29;20055;-74
2021/11/15 03:09:12;;;;;;;313.13;48.40;;;8.90;95.40;;;;;;4807747;29;20058;-74
2021/11/15 03:11:39;;;;;;;337.75;50.75;;;9.00;95.40;;;;;;4823243;29;20081;-74
2021/11/15 03:14:07;;;;;;;287.60;50.33;;;8.90;95.40;;;;;;4823779;29;20493;-75
2021/11/15 03:16:35;;;;;;;328.00;49.60;;;8.90;95.40;;;;;;4823151;29;20058;-75
2021/11/15 03:19:02;;;;;;;301.92;48.80;;;9.00;95.40;;;;;;4806197;29;20058;-74
2021/11/15 03:21:30;;;;;;;292.75;50.15;;;8.90;95.40;;;;;;4823488;29;20047;-74
2021/11/15 03:23:58;;;;;;;362.98;51.38;;;8.90;95.40;;;;;;4823244;29;20547;-74
2021/11/15 03:26:26;;;;;;;299.25;49.28;;;8.90;95.40;;;;;;4822446;29;20374;-74
2021/11/15 03:28:54;;;;;;;252.25;48.03;;;8.90;95.40;;;;;;4822664;29;20046;-74
2021/11/15 03:31:24;;;;;;;260.38;46.97;;;8.90;95.40;;;;;;4821977;29;20065;-74
2021/11/15 03:33:59;;;;;;;240.88;46.20;;;8.90;95.50;;;;;;4823155;29;20050;-74
2021/11/15 03:36:28;;;;;;;238.50;46.75;;;8.90;95.40;;;;;;4823576;29;20497;-74
2021/11/15 03:38:56;;;;;;;190.95;42.17;;;8.90;95.40;;;;;;4822258;29;20059;-74
2021/11/15 03:41:26;;;;;;;150.55;38.90;;;8.80;95.40;;;;;;4823017;29;20058;-74
2021/11/15 03:43:53;;;;;;;162.35;38.65;;;8.80;95.40;;;;;;4822833;29;20501;-74
2021/11/15 03:46:22;;;;;;;134.10;34.22;;;8.80;95.40;;;;;;4823146;29;20555;-74
2021/11/15 03:48:51;;;;;;;139.93;36.47;;;8.80;95.40;;;;;;4823434;29;20489;-74
2021/11/15 03:51:20;;;;;;;153.02;37.55;;;8.80;95.30;;;;;;4837071;29;20405;-74
2021/11/15 03:53:48;;;;;;;141.82;36.88;;;8.80;95.40;;;;;;4821809;29;20043;-74
2021/11/15 03:56:22;;;;;;;151.05;37.67;;;8.80;95.40;;;;;;4822319;29;20061;-74
2021/11/15 03:58:50;;;;;;;155.57;37.67;;;8.80;95.40;;;;;;4823444;29;20058;-75
2021/11/15 04:01:26;;;;;;;159.55;38.25;;;8.80;95.40;;;;;;4821973;29;20062;-74
2021/11/15 04:03:55;;;;;;;154.90;38.78;;;8.80;95.30;;;;;;4822979;29;20069;-74
2021/11/15 04:06:27;;;;;;;152.55;37.33;;;8.80;95.40;;;;;;4806850;29;20497;-74
2021/11/15 04:09:01;;;;;;;186.05;40.55;;;8.70;95.30;;;;;;4821996;29;20054;-74
2021/11/15 04:11:31;;;;;;;191.13;39.60;;;8.70;95.20;;;;;;4822514;29;20050;-74
2021/11/15 04:14:03;;;;;;;193.65;40.00;;;8.60;95.20;;;;;;4823301;29;20050;-74
2021/11/15 04:16:32;;;;;;;187.07;39.95;;;8.70;95.30;;;;;;4822316;29;20473;-74
2021/11/15 04:19:07;;;;;;;175.98;40.15;;;8.60;95.30;;;;;;4801205;29;20057;-74
2021/11/15 04:21:35;;;;;;;173.10;39.90;;;8.60;95.30;;;;;;4794914;29;20050;-75
2021/11/15 04:24:04;;;;;;;167.23;38.05;;;8.60;95.30;;;;;;4826668;29;20056;-74
2021/11/15 04:26:32;;;;;;;190.10;41.03;;;8.60;95.20;;;;;;4824873;29;20066;-74
2021/11/15 04:29:00;;;;;;;203.00;42.30;;;8.50;95.30;;;;;;4825094;29;20047;-74
2021/11/15 04:31:28;;;;;;;203.38;43.63;;;8.50;95.30;;;;;;4824731;29;20058;-74
2021/11/15 04:33:56;;;;;;;206.95;44.97;;;8.60;95.30;;;;;;4825111;29;20057;-74
2021/11/15 04:36:23;;;;;;;196.95;42.10;;;8.50;95.30;;;;;;4826115;29;20054;-74
2021/11/15 04:38:51;;;;;;;159.63;39.30;;;8.60;95.30;;;;;;4824681;29;20413;-74
2021/11/15 04:41:19;;;;;;;177.20;41.88;;;8.60;95.30;;;;;;4826349;29;20050;-74
2021/11/15 04:43:48;;;;;;;185.02;41.40;;;8.50;95.30;;;;;;4826239;29;20061;-75
2021/11/15 04:46:16;;;;;;;196.50;40.22;;;8.50;95.30;;;;;;4825123;29;20137;-74
2021/11/15 04:48:44;;;;;;;179.82;41.33;;;8.50;95.30;;;;;;4806680;29;20043;-74
2021/11/15 04:51:11;;;;;;;188.45;41.58;;;8.50;95.30;;;;;;4807279;29;20313;-74
2021/11/15 04:53:39;;;;;;;174.98;39.08;;;8.50;95.20;;;;;;4824572;29;20061;-74
2021/11/15 04:56:07;;;;;;;152.85;38.05;;;8.50;95.20;;;;;;4794134;29;20056;-75
2021/11/15 04:58:35;;;;;;;180.70;41.05;;;8.40;95.20;;;;;;4824532;29;20058;-74
2021/11/15 05:01:04;;;;;;;181.80;42.40;;;8.50;95.20;;;;;;4825658;29;20057;-74
2021/11/15 05:03:35;;;;;;;177.07;41.97;;;8.40;95.20;;;;;;4825303;29;20066;-74
2021/11/15 05:06:04;;;;;;;177.40;43.35;;;8.50;95.30;;;;;;4824291;29;20054;-75
2021/11/15 05:08:32;;;;;;;155.98;41.03;;;8.50;95.30;;;;;;4825880;29;20069;-74
2021/11/15 05:11:00;;;;;;;188.68;43.83;;;8.50;95.30;;;;;;4794927;29;20058;-74
2021/11/15 05:13:28;;;;;;;169.65;42.55;;;8.50;95.30;;;;;;4824928;29;20505;-74
2021/11/15 05:15:56;;;;;;;149.70;39.33;;;8.50;95.20;;;;;;4817999;29;20057;-73
2021/11/15 05:18:23;;;;;;;166.50;42.58;;;8.50;95.30;;;;;;4823708;29;20512;-74
2021/11/15 05:20:52;;;;;;;158.23;42.42;;;8.50;95.20;;;;;;4825871;29;20046;-73
2021/11/15 05:23:20;;;;;;;152.93;41.15;;;8.50;95.20;;;;;;4821606;29;20062;-73
2021/11/15 05:25:47;;;;;;;164.65;42.13;;;8.50;95.20;;;;;;4824037;29;20061;-74
2021/11/15 05:28:15;;;;;;;169.25;44.30;;;8.50;95.20;;;;;;4824942;29;20054;-75
2021/11/15 05:30:43;;;;;;;167.27;43.53;;;8.50;95.20;;;;;;4823868;29;20054;-75
2021/11/15 05:33:10;;;;;;;165.23;44.47;;;8.50;95.20;;;;;;4820078;29;20505;-75
2021/11/15 05:35:38;;;;;;;164.60;44.05;;;8.50;95.20;;;;;;4826022;29;20054;-75
2021/11/15 05:38:06;;;;;;;167.52;44.17;;;8.50;95.20;;;;;;4822727;29;20054;-75
2021/11/15 05:40:34;;;;;;;165.57;42.05;;;8.50;95.20;;;;;;4823014;29;20058;-75
2021/11/15 05:43:02;;;;;;;173.82;44.03;;;8.40;95.20;;;;;;4831275;29;20050;-75
2021/11/15 05:45:30;;;;;;;172.40;42.95;;;8.40;95.10;;;;;;4821411;29;20065;-75
2021/11/15 05:47:58;;;;;;;183.23;44.05;;;8.40;95.10;;;;;;4828160;29;20057;-75
2021/11/15 05:50:28;;;;;;;153.00;40.72;;;8.30;95.10;;;;;;4808704;29;20077;-75
2021/11/15 05:52:57;;;;;;;194.90;43.80;;;8.30;95.20;;;;;;4836741;29;20061;-75
2021/11/15 05:55:25;;;;;;;184.43;43.00;;;8.30;95.20;;;;;;4813055;29;20050;-75
2021/11/15 05:57:53;;;;;;;196.63;44.53;;;8.30;95.20;;;;;;4822937;29;20073;-74
2021/11/15 06:00:24;;;;;;;211.15;43.13;;;8.40;95.20;;;;;;4826058;29;20508;-74
2021/11/15 06:02:53;;;;;;;268.35;43.03;;;8.30;95.20;;;;;;4838041;29;20520;-74
2021/11/15 06:05:22;;;;;;;263.48;40.50;;;8.40;95.20;;;;;;4811992;29;20046;-74
2021/11/15 06:07:51;;;;;;;266.17;40.40;;;8.40;95.20;;;;;;4824046;29;20053;-74
2021/11/15 06:10:19;;;;;;;399.35;43.10;;;8.40;95.20;;;;;;4825088;29;20050;-74
2021/11/15 06:12:48;;;;;;;286.58;39.80;;;8.40;95.20;;;;;;4823536;29;20063;-74
2021/11/15 06:15:17;;;;;;;394.02;40.63;;;8.40;95.20;;;;;;4824602;29;20057;-74
2021/11/15 06:17:45;;;;;;;373.25;40.00;;;8.40;95.20;;;;;;4823534;29;20054;-74
2021/11/15 06:20:14;;;;;;;388.30;36.92;;;8.40;95.20;;;;;;4823754;29;20050;-74
2021/11/15 06:22:43;;;;;;;389.63;37.85;;;8.40;95.20;;;;;;4824003;29;20059;-74
2021/11/15 06:25:13;;;;;;;409.50;37.05;;;8.30;95.20;;;;;;4824137;29;20049;-74
2021/11/15 06:27:40;;;;;;;505.35;38.17;;;8.30;95.20;;;;;;4824891;29;20046;-74
2021/11/15 06:30:12;;;;;;;595.05;41.30;;;8.30;95.20;;;;;;4822720;29;20081;-74
2021/11/15 06:32:40;;;;;;;405.02;35.33;;;8.30;95.20;;;;;;4825326;29;20042;-74
2021/11/15 06:35:07;;;;;;;381.90;34.50;;;8.30;95.20;;;;;;4822856;29;20405;-74
2021/11/15 06:37:36;;;;;;;411.83;35.35;;;8.30;95.30;;;;;;4812245;29;20523;-74
2021/11/15 06:40:08;;;;;;;289.58;34.95;;;8.30;95.20;;;;;;4827940;29;20110;-74
2021/11/15 06:42:36;;;;;;;374.08;39.25;;;8.30;95.30;;;;;;4801911;29;20054;-74
2021/11/15 06:45:06;;;;;;;318.92;38.88;;;8.30;95.30;;;;;;4809501;29;20054;-74
2021/11/15 06:47:35;;;;;;;388.75;43.05;;;8.30;95.30;;;;;;4820120;29;20062;-74
2021/11/15 06:50:05;;;;;;;411.75;38.90;;;8.30;95.20;;;;;;4830929;29;20065;-74
2021/11/15 06:52:33;;;;;;;528.80;42.10;;;8.30;95.20;;;;;;4821545;29;20058;-74
2021/11/15 06:55:01;;;;;;;735.63;46.78;;;8.30;95.20;;;;;;4837854;29;20535;-74
2021/11/15 06:57:29;;;;;;;755.28;43.53;;;8.30;95.20;;;;;;4822576;29;20062;-75
2021/11/15 06:59:57;;;;;;;671.80;39.15;;;8.30;95.30;;;;;;4824013;29;20066;-75
2021/11/15 07:02:25;;;;;;;541.75;37.33;;;8.20;95.20;;;;;;4824295;29;20050;-75
2021/11/15 07:04:53;;;;;;;515.88;36.95;;;8.20;95.20;;;;;;4823870;29;20188;-75
2021/11/15 07:07:20;;;;;;;707.47;40.70;;;8.10;95.30;;;;;;4807692;29;20046;-75
2021/11/15 07:09:49;;;;;;;624.33;35.97;;;8.20;95.30;;;;;;4823578;29;20055;-75
2021/11/15 07:12:17;;;;;;;607.85;35.88;;;8.20;95.30;;;;;;4830143;29;20043;-75
2021/11/15 07:14:45;;;;;;;639.45;36.78;;;8.10;95.30;;;;;;4825136;29;20421;-75
2021/11/15 07:17:13;;;;;;;704.35;39.13;;;8.10;95.30;;;;;;4821424;29;20062;-76
2021/11/15 07:19:40;;;;;;;653.38;37.90;;;8.00;95.30;;;;;;4829886;29;20045;-78
2021/11/15 07:22:28;;;;;;;420.30;32.33;;;8.00;95.40;;;;;;4830155;29;20054;-77
2021/11/15 07:24:56;;;;;;;660.08;39.25;;;8.00;95.30;;;;;;4822539;29;20058;-77
2021/11/15 07:27:24;;;;;;;618.17;34.97;;;8.00;95.30;;;;;;4808321;29;20497;-77
2021/11/15 07:29:52;;;;;;;666.88;40.42;;;8.00;95.40;;;;;;4828691;29;20054;-75
2021/11/15 07:32:19;;;;;;;662.45;38.35;;;8.00;95.40;;;;;;4823706;29;20053;-74
2021/11/15 07:34:47;;;;;;;600.25;35.58;;;8.10;95.40;;;;;;4833010;29;20046;-75
2021/11/15 07:37:15;;;;;;;489.25;36.40;;;8.00;95.30;;;;;;4825508;29;20500;-76
2021/11/15 07:39:43;;;;;;;588.65;38.55;;;8.00;95.30;;;;;;4823855;29;20047;-76
2021/11/15 07:42:17;;;;;;;539.83;37.65;;;8.00;95.30;;;;;;4835650;29;20041;-77
2021/11/15 07:44:46;;;;;;;553.00;38.35;;;8.00;95.30;;;;;;4818118;29;20058;-75
2021/11/15 07:47:15;;;;;;;405.80;33.83;;;8.00;95.40;;;;;;4824360;29;20493;-75
2021/11/15 07:49:44;;;;;;;537.10;37.65;;;8.00;95.40;;;;;;4822230;29;20065;-81
2021/11/15 07:52:16;;;;;;;567.55;37.25;;;8.00;95.40;;;;;;4821552;29;20512;-76
2021/11/15 07:54:45;;;;;;;601.63;39.90;;;8.10;95.50;;;;;;4820955;29;20075;-76
2021/11/15 07:57:13;;;;;;;518.38;37.47;;;8.10;95.40;;;;;;4819839;29;20049;-77
2021/11/15 07:59:41;;;;;;;585.78;38.03;;;8.10;95.50;;;;;;4820858;29;20050;-76
2021/11/15 08:02:11;;;;;;;557.50;34.90;;;8.10;95.40;;;;;;4806809;29;20501;-78
2021/11/15 08:04:39;;;;;;;544.95;36.45;;;8.10;95.40;;;;;;4815356;29;20065;-77
2021/11/15 08:07:07;;;;;;;493.73;34.25;;;8.10;95.40;;;;;;4819848;29;20051;-76
2021/11/15 08:09:34;;;;;;;579.28;37.40;;;8.20;95.40;;;;;;4822420;29;20449;-77
2021/11/15 08:12:07;;;;;;;593.08;36.22;;;8.20;95.40;;;;;;4820477;29;20519;-77
2021/11/15 08:14:38;;;;;;;374.08;32.78;;;8.20;95.50;;;;;;4830209;29;20069;-76
2021/11/15 08:17:07;;;;;;;505.35;37.35;;;8.20;95.40;;;;;;4831697;29;20061;-76
2021/11/15 08:19:35;;;;;;;431.85;35.08;;;8.30;95.40;;;;;;4839504;29;20344;-76
2021/11/15 08:22:03;;;;;;;509.08;36.58;;;8.30;95.40;;;;;;4824666;29;20492;-76
2021/11/15 08:24:40;;;;;;;397.77;34.63;;;8.20;95.40;;;;;;4838852;29;20386;-76
2021/11/15 08:27:09;;;;;;;408.67;36.58;;;8.30;95.40;;;;;;4823295;29;20050;-76
2021/11/15 08:29:38;;;;;;;372.17;35.33;;;8.30;95.40;;;;;;4822453;29;20508;-75
2021/11/15 08:32:07;;;;;;;267.58;33.28;;;8.30;95.40;;;;;;4822355;29;20062;-76
2021/11/15 08:34:36;;;;;;;184.10;29.88;;;8.30;95.40;;;;;;4822644;29;20058;-76
2021/11/15 08:37:05;;;;;;;162.93;30.48;;;8.40;95.40;;;;;;4835301;29;20069;-76
2021/11/15 08:39:35;;;;;;;129.48;27.30;;;8.50;95.40;;;;;;4824903;29;20058;-75
2021/11/15 08:42:06;;;;;;;120.93;27.83;;;8.50;95.40;;;;;;4841299;29;20053;-76
2021/11/15 08:44:38;;;;;;;115.18;28.13;;;8.50;95.30;;;;;;4823911;29;20408;-76
2021/11/15 08:47:05;;;;;;;117.28;27.98;;;8.50;95.20;;;;;;4804912;29;20055;-76
2021/11/15 08:49:33;;;;;;;121.35;28.20;;;8.50;95.20;;;;;;4804832;29;20081;-75
2021/11/15 08:52:04;;;;;;;140.48;27.92;;;8.50;95.10;;;;;;4788799;29;20147;-76
2021/11/15 08:54:35;;;;;;;156.57;28.92;;;8.60;95.10;;;;;;4773481;29;20063;-76
2021/11/15 08:57:05;;;;;;;153.65;30.83;;;8.60;95.00;;;;;;4822888;29;20055;-75
2021/11/15 08:59:45;;;;;;;198.13;32.35;;;8.60;95.10;;;;;;4822961;29;20050;-76
2021/11/15 09:02:14;;;;;;;184.25;31.05;;;8.60;95.00;;;;;;4806767;29;20046;-76
2021/11/15 09:04:42;;;;;;;210.57;32.42;;;8.60;95.00;;;;;;4809385;29;20059;-76
2021/11/15 09:07:10;;;;;;;247.18;33.90;;;8.60;94.90;;;;;;4824961;29;20054;-76
2021/11/15 09:09:41;;;;;;;229.15;32.03;;;8.60;94.90;;;;;;4824342;29;20069;-76
2021/11/15 09:12:09;;;;;;;240.40;33.83;;;8.60;94.90;;;;;;4825874;29;20046;-76
2021/11/15 09:14:37;;;;;;;281.00;35.35;;;8.60;94.90;;;;;;4825486;29;20501;-75
2021/11/15 09:17:06;;;;;;;307.17;35.65;;;8.60;94.90;;;;;;4824365;29;20058;-77
2021/11/15 09:19:34;;;;;;;266.95;35.67;;;8.70;94.90;;;;;;4825890;29;20059;-76
2021/11/15 09:22:02;;;;;;;236.00;35.00;;;8.70;95.00;;;;;;4825685;29;20065;-76
2021/11/15 09:24:31;;;;;;;174.07;32.65;;;8.80;95.10;;;;;;4824113;29;20386;-75
2021/11/15 09:27:01;;;;;;;222.70;35.25;;;8.90;95.10;;;;;;4824943;29;20054;-74
2021/11/15 09:29:29;;;;;;;208.68;33.78;;;9.00;95.00;;;;;;4825663;29;20065;-75
2021/11/15 09:31:57;;;;;;;199.38;33.25;;;9.10;94.90;;;;;;4824188;29;20077;-75
2021/11/15 09:34:25;;;;;;;206.57;33.72;;;9.10;94.80;;;;;;4825737;29;20057;-75
2021/11/15 09:36:53;;;;;;;184.68;33.30;;;9.20;94.70;;;;;;4823896;29;20069;-76
2021/11/15 09:39:23;;;;;;;180.23;34.15;;;9.30;94.70;;;;;;4824384;29;20051;-76
2021/11/15 09:41:51;;;;;;;165.70;32.60;;;9.30;94.60;;;;;;4824418;29;20057;-75
2021/11/15 09:44:18;;;;;;;144.85;30.20;;;9.30;94.50;;;;;;4825686;29;20377;-75
2021/11/15 09:46:47;;;;;;;146.73;32.25;;;9.40;94.50;;;;;;4823985;29;20046;-75
2021/11/15 09:49:14;;;;;;;118.93;28.98;;;9.40;94.50;;;;;;4809102;29;20051;-76
2021/11/15 09:51:45;;;;;;;141.45;30.40;;;9.40;94.40;;;;;;4825894;29;20066;-77
2021/11/15 09:54:15;;;;;;;134.40;30.55;;;9.40;94.30;;;;;;4809809;29;20057;-76
2021/11/15 09:56:43;;;;;;;117.22;28.42;;;9.50;94.20;;;;;;4825244;29;20054;-75
2021/11/15 09:59:11;;;;;;;124.05;29.45;;;9.50;94.20;;;;;;4824255;29;20047;-77
2021/11/15 10:01:41;;;;;;;119.65;29.63;;;9.60;94.20;;;;;;4825402;29;20054;-77
2021/11/15 10:04:16;;;;;;;116.88;28.77;;;9.70;94.10;;;;;;4825102;29;20075;-78
2021/11/15 10:06:45;;;;;;;110.22;29.20;;;9.70;94.00;;;;;;4824695;29;20061;-76
2021/11/15 10:09:13;;;;;;;99.85;28.38;;;9.70;93.90;;;;;;4824621;29;20058;-77
2021/11/15 10:11:46;;;;;;;95.82;26.67;;;9.80;93.90;;;;;;4824422;29;20061;-76
2021/11/15 10:14:15;;;;;;;89.75;27.13;;;9.80;93.70;;;;;;4823623;29;20046;-76
2021/11/15 10:16:54;;;;;;;93.22;27.17;;;9.90;93.70;;;;;;4824958;29;20054;-76
2021/11/15 10:19:22;;;;;;;85.93;26.58;;;10.00;93.60;;;;;;4824941;29;20050;-76
2021/11/15 10:22:02;;;;;;;83.72;27.05;;;10.20;93.30;;;;;;4823996;29;20501;-75
2021/11/15 10:24:41;;;;;;;66.55;24.33;;;10.30;92.80;;;;;;4823782;29;20054;-76
2021/11/15 10:27:18;;;;;;;68.45;25.42;;;10.40;92.60;;;;;;4824746;29;20375;-75
2021/11/15 10:29:50;;;;;;;71.38;24.48;;;10.40;92.40;;;;;;4808582;29;20057;-75
2021/11/15 10:32:29;;;;;;;64.03;24.40;;;10.50;92.20;;;;;;4823513;29;20055;-76
2021/11/15 10:34:59;;;;;;;69.72;25.63;;;10.50;92.00;;;;;;4807741;29;20065;-75
2021/11/15 10:37:29;;;;;;;70.68;24.27;;;10.50;91.90;;;;;;4824514;29;20054;-75
2021/11/15 10:40:12;;;;;;;68.13;24.77;;;10.50;91.90;;;;;;4823279;29;20452;-76
2021/11/15 10:42:46;;;;;;;66.30;24.80;;;10.60;91.70;;;;;;4824791;29;20042;-75
2021/11/15 10:45:18;;;;;;;70.30;25.58;;;10.60;91.70;;;;;;4822967;29;20055;-75
2021/11/15 10:47:50;;;;;;;61.42;24.85;;;10.60;91.40;;;;;;4824680;29;20046;-76
2021/11/15 10:53:09;;;;;;;63.35;25.10;;;10.50;91.30;;;;;;4824702;29;20061;-76
2021/11/15 10:56:05;;;;;;;68.25;25.63;;;10.50;91.30;;;;;;4823134;29;20071;-76
2021/11/15 10:58:54;;;;;;;58.00;24.33;;;10.40;91.30;;;;;;4821129;29;20062;-76
2021/11/15 11:01:32;;;;;;;59.28;25.60;;;10.40;91.30;;;;;;4823462;29;20531;-75
2021/11/15 11:04:08;;;;;;;60.10;27.08;;;10.40;91.30;;;;;;4823910;29;20066;-76
2021/11/15 11:07:01;;;;;;;57.45;25.05;;;10.40;91.20;;;;;;4823090;29;20055;-76
2021/11/15 11:09:37;;;;;;;53.87;25.13;;;10.40;91.10;;;;;;4822742;29;20049;-76
2021/11/15 11:12:14;;;;;;;59.95;24.85;;;10.30;91.10;;;;;;4807983;29;20101;-75
2021/11/15 11:14:45;;;;;;;57.75;26.73;;;10.40;91.10;;;;;;4807208;29;20061;-75
2021/11/15 11:17:13;;;;;;;54.75;25.50;;;10.40;91.00;;;;;;4823236;29;20061;-75
2021/11/15 11:20:03;;;;;;;55.58;25.58;;;10.50;91.00;;;;;;4822683;29;20398;-75
2021/11/15 11:27:35;;;;;;;56.95;26.33;;;10.60;90.70;;;;;;4821790;29;20073;-76
2021/11/15 11:30:06;;;;;;;56.90;25.42;;;10.60;90.60;;;;;;4807733;29;20421;-75
2021/11/15 11:32:34;;;;;;;52.80;25.17;;;10.70;90.60;;;;;;4823993;29;20050;-75
2021/11/15 11:35:03;;;;;;;51.45;24.52;;;10.80;90.40;;;;;;4821997;29;20061;-75
2021/11/15 11:37:31;;;;;;;55.88;25.73;;;10.80;90.40;;;;;;4822667;29;20077;-75
2021/11/15 11:40:03;;;;;;;50.75;23.83;;;10.90;90.30;;;;;;4823795;29;20050;-76
2021/11/15 11:42:31;;;;;;;51.53;24.73;;;11.00;90.20;;;;;;4822635;29;20383;-75
2021/11/15 11:44:58;;;;;;;49.08;24.50;;;11.10;90.00;;;;;;4823721;29;20062;-75
2021/11/15 11:47:29;;;;;;;51.83;25.23;;;11.20;89.90;;;;;;4829020;29;20060;-76
2021/11/15 11:50:00;;;;;;;53.70;25.25;;;11.20;89.80;;;;;;4840838;29;20065;-76
2021/11/15 11:52:39;;;;;;;57.70;24.65;;;11.30;89.60;;;;;;4840988;29;20546;-75
2021/11/15 11:55:19;;;;;;;50.78;23.88;;;11.30;89.50;;;;;;4824076;29;20073;-75
2021/11/15 11:57:47;;;;;;;51.35;23.85;;;11.30;89.30;;;;;;4822362;29;20054;-77
2021/11/15 12:00:16;;;;;;;52.13;25.25;;;11.30;89.10;;;;;;4822466;29;20056;-75
2021/11/15 12:02:45;;;;;;;43.65;23.15;;;11.30;89.10;;;;;;4822421;29;20046;-76
2021/11/15 12:05:19;;;;;;;45.42;23.77;;;11.30;88.90;;;;;;4823318;29;20501;-76
2021/11/15 12:07:51;;;;;;;46.75;23.40;;;11.30;88.90;;;;;;4823658;29;20046;-76
2021/11/15 12:10:43;;;;;;;49.42;23.92;;;11.30;88.80;;;;;;4807422;29;20058;-76
2021/11/15 12:13:16;;;;;;;50.50;23.65;;;11.30;88.70;;;;;;4823521;29;20054;-76
2021/11/15 12:16:00;;;;;;;47.83;24.10;;;11.30;88.50;;;;;;4815754;29;20046;-75
2021/11/15 12:18:29;;;;;;;44.05;22.60;;;11.30;88.50;;;;;;4823433;29;20046;-76
2021/11/15 12:21:02;;;;;;;46.13;23.50;;;11.30;88.50;;;;;;4837335;29;20054;-76
2021/11/15 12:23:31;;;;;;;;;;;11.30;88.50;;;;;;4823977;29;20057;-77
2021/11/15 12:26:05;;;;;;;41.53;21.88;;;11.20;88.60;;;;;;4823101;29;20325;-75
2021/11/15 12:28:34;;;;;;;47.88;22.38;;;11.20;88.60;;;;;;4823408;29;20055;-76
2021/11/15 12:31:03;;;;;;;40.22;21.45;;;11.20;88.60;;;;;;4823233;29;20058;-76
2021/11/15 12:33:33;;;;;;;44.55;22.02;;;11.20;88.60;;;;;;4821706;29;20057;-75
2021/11/15 12:36:09;;;;;;;55.95;23.23;;;11.20;88.60;;;;;;4822876;29;20054;-76
2021/11/15 12:38:45;;;;;;;43.95;22.23;;;11.20;88.40;;;;;;4824838;29;20390;-76
2021/11/15 12:41:19;;;;;;;48.78;22.40;;;11.10;88.40;;;;;;4825763;29;20050;-76
2021/11/15 12:44:01;;;;;;;45.00;22.85;;;11.10;88.50;;;;;;4826667;29;20047;-76
2021/11/15 12:46:56;;;;;;;48.17;23.30;;;11.10;88.40;;;;;;4825520;29;20055;-76
2021/11/15 12:49:37;;;;;;;45.85;22.58;;;11.00;88.30;;;;;;4826531;29;20046;-76